Time;durP1;ratioP1;P1;durP2;ratioP2;P2;SDS_P1;SDS_P2;PMS_P1;PMS_P2;Temp;Humidity;BMP_temperature;BMP_pressure;BME280_temperature;BME280_humidity;BME280_pressure;Samples;Min_cycle;Max_cycle;Signal;HPM_P1;HPM_P2
2021/08/08 00:01:07;;;;;;;0.70;0.60;;;;;;;17.92;100.00;-21167.78;5034589;28;20462;-73
2021/08/08 00:03:35;;;;;;;0.80;0.70;;;;;;;17.94;100.00;-21168.47;5018719;28;20535;-72
2021/08/08 00:06:03;;;;;;;0.80;0.70;;;;;;;17.94;100.00;-21168.34;5034993;28;20849;-72
2021/08/08 00:08:32;;;;;;;0.80;0.70;;;;;;;17.92;100.00;-21167.91;5035037;28;20509;-72
2021/08/08 00:11:00;;;;;;;0.80;0.73;;;;;;;17.88;100.00;-21166.81;5035194;28;20420;-72
2021/08/08 00:13:30;;;;;;;0.70;0.60;;;;;;;17.96;100.00;-21168.88;5034676;28;20474;-72
2021/08/08 00:15:58;;;;;;;0.73;0.63;;;;;;;17.97;100.00;-21169.16;5034616;28;20986;-72
2021/08/08 00:18:27;;;;;;;0.70;0.60;;;;;;;17.97;100.00;-21169.16;5050234;28;20467;-73
2021/08/08 00:20:55;;;;;;;0.70;0.67;;;;;;;17.95;100.00;-21168.59;5037790;28;20460;-73
2021/08/08 00:23:24;;;;;;;0.80;0.80;;;;;;;17.97;100.00;-21169.16;5054624;28;20453;-72
2021/08/08 00:25:53;;;;;;;1.83;1.30;;;;;;;17.93;100.00;-21168.19;5055002;28;20471;-72
2021/08/08 00:28:22;;;;;;;0.70;0.70;;;;;;;17.98;100.00;-21169.44;5054604;28;21006;-73
2021/08/08 00:30:52;;;;;;;0.70;0.60;;;;;;;17.95;100.00;-21168.59;5055667;28;20414;-73
2021/08/08 00:33:42;;;;;;;0.70;0.60;;;;;;;17.90;100.00;-21167.38;5053604;28;20452;-71
2021/08/08 00:36:09;;;;;;;0.80;0.77;;;;;;;17.80;100.00;-21164.78;5037679;28;20504;-72
2021/08/08 00:38:37;;;;;;;0.80;0.70;;;;;;;17.82;100.00;-21165.31;5054276;28;20458;-73
2021/08/08 00:41:04;;;;;;;0.80;0.70;;;;;;;17.89;100.00;-21166.97;5037377;28;20440;-72
2021/08/08 00:43:32;;;;;;;0.70;0.70;;;;;;;17.96;100.00;-21169.00;5035514;28;20515;-73
2021/08/08 00:46:01;;;;;;;0.70;0.70;;;;;;;18.02;100.00;-21170.53;5033909;28;20853;-73
2021/08/08 00:48:29;;;;;;;0.70;0.70;;;;;;;17.97;100.00;-21169.28;5017637;28;20447;-72
2021/08/08 00:50:58;;;;;;;0.70;0.60;;;;;;;18.05;100.00;-21171.34;5020229;28;20520;-73
2021/08/08 00:53:51;;;;;;;0.73;0.70;;;;;;;18.05;100.00;-21171.47;5041452;28;20482;-71
2021/08/08 00:56:19;;;;;;;0.70;0.70;;;;;;;18.05;100.00;-21171.34;5037496;28;20495;-73
2021/08/08 00:58:47;;;;;;;0.70;0.70;;;;;;;17.99;100.00;-21169.69;5037414;28;20538;-73
2021/08/08 01:01:24;;;;;;;0.70;0.70;;;;;;;18.03;100.00;-21170.78;5047213;28;20469;-74
2021/08/08 01:03:58;;;;;;;0.80;0.67;;;;;;;18.05;100.00;-21171.34;5033760;28;20448;-72
2021/08/08 01:06:30;;;;;;;0.80;0.70;;;;;;;18.05;100.00;-21171.34;5033737;28;20454;-74
2021/08/08 01:09:03;;;;;;;0.70;0.70;;;;;;;18.09;100.00;-21172.56;5025804;28;20580;-74
2021/08/08 01:11:36;;;;;;;0.77;0.67;;;;;;;17.97;100.00;-21169.16;5035852;28;20781;-73
2021/08/08 01:14:06;;;;;;;0.70;0.60;;;;;;;18.01;100.00;-21170.38;5035897;28;20455;-73
2021/08/08 01:16:41;;;;;;;0.70;0.70;;;;;;;18.03;100.00;-21170.78;5053092;28;20476;-72
2021/08/08 01:19:11;;;;;;;0.70;0.60;;;;;;;18.02;100.00;-21170.53;5037318;28;20485;-72
2021/08/08 01:21:39;;;;;;;0.70;0.70;;;;;;;18.11;100.00;-21173.00;5044183;28;20448;-73
2021/08/08 01:24:12;;;;;;;0.80;0.70;;;;;;;18.09;100.00;-21172.56;5033666;28;20533;-74
2021/08/08 01:26:44;;;;;;;0.80;0.70;;;;;;;18.08;100.00;-21172.16;5033629;28;20872;-72
2021/08/08 01:29:14;;;;;;;0.70;0.60;;;;;;;18.15;100.00;-21173.94;5033618;28;20487;-73
2021/08/08 01:31:49;;;;;;;0.80;0.70;;;;;;;18.32;100.00;-21178.75;5033550;28;20446;-73
2021/08/08 01:34:19;;;;;;;0.80;0.70;;;;;;;18.29;100.00;-21177.91;5037188;28;20939;-73
2021/08/08 01:36:51;;;;;;;0.70;0.70;;;;;;;18.31;100.00;-21178.47;5037153;28;20470;-72
2021/08/08 01:39:23;;;;;;;0.80;0.70;;;;;;;18.35;100.00;-21179.56;5037076;28;20467;-72
2021/08/08 01:41:57;;;;;;;0.70;0.70;;;;;;;18.35;100.00;-21179.56;5032616;28;20448;-74
2021/08/08 01:44:32;;;;;;;0.73;0.70;;;;;;;18.27;100.00;-21177.25;5020062;28;20431;-72
2021/08/08 01:47:09;;;;;;;0.70;0.60;;;;;;;18.29;100.00;-21177.91;5051398;28;20862;-73
2021/08/08 01:49:36;;;;;;;0.70;0.70;;;;;;;18.35;100.00;-21179.56;5053087;28;20454;-73
2021/08/08 01:52:08;;;;;;;0.70;0.70;;;;;;;18.44;100.00;-21181.75;5039621;28;20495;-72
2021/08/08 01:54:48;;;;;;;0.80;0.80;;;;;;;18.24;100.00;-21176.56;5032393;28;20969;-73
2021/08/08 01:57:22;;;;;;;0.80;0.70;;;;;;;18.24;100.00;-21176.41;5032866;28;20470;-73
2021/08/08 01:59:57;;;;;;;0.77;0.70;;;;;;;18.24;100.00;-21176.41;5033033;28;20439;-71
2021/08/08 02:02:26;;;;;;;0.80;0.80;;;;;;;18.32;100.00;-21178.75;5032203;28;20453;-72
2021/08/08 02:05:03;;;;;;;0.70;0.60;;;;;;;18.28;100.00;-21177.66;5032531;28;20432;-72
2021/08/08 02:07:51;;;;;;;0.70;0.60;;;;;;;18.10;100.00;-21172.84;5032467;28;20558;-72
2021/08/08 02:10:22;;;;;;;0.70;0.63;;;;;;;18.16;100.00;-21174.34;5032659;28;21014;-71
2021/08/08 02:12:50;;;;;;;0.70;0.70;;;;;;;18.01;100.00;-21170.38;5019727;28;20485;-73
2021/08/08 02:15:18;;;;;;;0.70;0.70;;;;;;;18.00;100.00;-21169.97;5033720;28;20427;-72
2021/08/08 02:17:55;;;;;;;0.77;0.70;;;;;;;18.05;100.00;-21171.34;5032567;28;20439;-71
2021/08/08 02:20:26;;;;;;;0.70;0.70;;;;;;;17.94;100.00;-21168.34;5032294;28;20499;-72
2021/08/08 02:23:00;;;;;;;0.70;0.60;;;;;;;17.88;100.00;-21166.69;5032211;28;20580;-73
2021/08/08 02:25:32;;;;;;;0.70;0.70;;;;;;;17.85;100.00;-21166.13;5016711;28;20444;-72
2021/08/08 02:28:08;;;;;;;0.70;0.67;;;;;;;17.84;100.00;-21165.72;5032291;28;20934;-71
2021/08/08 02:30:58;;;;;;;0.70;0.70;;;;;;;17.79;100.00;-21164.34;5033730;28;20514;-72
2021/08/08 02:33:29;;;;;;;0.70;0.70;;;;;;;17.79;100.00;-21164.50;5048751;28;20459;-72
2021/08/08 02:35:59;;;;;;;0.80;0.70;;;;;;;17.79;100.00;-21164.50;5035967;28;20474;-72
2021/08/08 02:38:32;;;;;;;0.80;0.70;;;;;;;17.75;100.00;-21163.25;5036171;28;20468;-75
2021/08/08 02:41:04;;;;;;;0.80;0.70;;;;;;;17.73;100.00;-21162.72;5036129;28;20438;-72
2021/08/08 02:43:33;;;;;;;0.70;0.70;;;;;;;17.68;100.00;-21161.47;5034167;28;20451;-73
2021/08/08 02:46:02;;;;;;;0.80;0.77;;;;;;;17.63;100.00;-21160.25;5032230;28;20451;-73
2021/08/08 02:48:30;;;;;;;0.80;0.70;;;;;;;17.66;100.00;-21160.94;5031752;28;20472;-72
2021/08/08 02:50:58;;;;;;;0.70;0.60;;;;;;;17.58;100.00;-21158.88;5035580;28;20459;-73
2021/08/08 02:53:30;;;;;;;0.70;0.60;;;;;;;17.50;100.00;-21156.53;5051438;28;20820;-73
2021/08/08 02:55:59;;;;;;;0.70;0.67;;;;;;;17.53;100.00;-21157.50;5035474;28;20952;-72
2021/08/08 02:58:30;;;;;;;0.70;0.60;;;;;;;17.46;100.00;-21155.59;5035929;28;20510;-72
2021/08/08 03:00:57;;;;;;;0.70;0.70;;;;;;;17.52;100.00;-21157.09;5053227;28;20430;-71
2021/08/08 03:03:30;;;;;;;0.77;0.70;;;;;;;17.44;100.00;-21154.91;5050125;28;20446;-72
2021/08/08 03:05:58;;;;;;;0.80;0.70;;;;;;;17.42;100.00;-21154.34;5051390;28;20990;-72
2021/08/08 03:08:48;;;;;;;0.77;0.77;;;;;;;17.44;100.00;-21154.91;5038201;28;20464;-73
2021/08/08 03:11:17;;;;;;;0.70;0.60;;;;;;;17.40;100.00;-21153.94;5034535;28;20965;-73
2021/08/08 03:13:46;;;;;;;0.70;0.70;;;;;;;17.30;100.00;-21151.19;5015652;28;20462;-73
2021/08/08 03:16:15;;;;;;;0.70;0.60;;;;;;;17.30;100.00;-21151.31;5015452;28;20476;-73
2021/08/08 03:18:43;;;;;;;0.70;0.70;;;;;;;17.28;100.00;-21150.66;5031537;28;20437;-73
2021/08/08 03:21:13;;;;;;;0.80;0.70;;;;;;;17.27;100.00;-21150.50;5037290;28;20955;-73
2021/08/08 03:23:41;;;;;;;0.80;0.70;;;;;;;17.24;100.00;-21149.69;5051631;28;21005;-72
2021/08/08 03:26:09;;;;;;;0.80;0.70;;;;;;;17.24;100.00;-21149.69;5051698;28;20554;-72
2021/08/08 03:28:41;;;;;;;0.70;0.70;;;;;;;17.24;100.00;-21149.53;5036431;28;20446;-72
2021/08/08 03:31:13;;;;;;;0.70;0.63;;;;;;;17.24;100.00;-21149.69;5051281;28;20857;-72
2021/08/08 03:33:40;;;;;;;0.70;0.60;;;;;;;17.18;100.00;-21148.03;5031137;28;20451;-72
2021/08/08 03:36:11;;;;;;;0.70;0.60;;;;;;;17.14;100.00;-21146.94;5031347;28;20554;-72
2021/08/08 03:38:39;;;;;;;0.70;0.60;;;;;;;17.08;100.00;-21145.28;5031540;28;20516;-73
2021/08/08 03:41:08;;;;;;;0.70;0.60;;;;;;;17.14;100.00;-21146.94;5031496;28;20448;-72
2021/08/08 03:43:35;;;;;;;0.70;0.60;;;;;;;17.00;100.00;-21143.09;5033328;28;20444;-72
2021/08/08 03:46:05;;;;;;;0.70;0.70;;;;;;;17.06;100.00;-21144.75;5048180;28;20477;-72
2021/08/08 03:48:36;;;;;;;0.80;0.80;;;;;;;16.99;100.00;-21142.81;5051055;28;20434;-72
2021/08/08 03:51:07;;;;;;;0.70;0.70;;;;;;;16.92;100.00;-21140.91;5030184;28;20562;-72
2021/08/08 03:53:36;;;;;;;0.70;0.60;;;;;;;16.85;100.00;-21139.25;5032842;28;20597;-73
2021/08/08 03:56:04;;;;;;;0.77;0.70;;;;;;;16.83;100.00;-21138.72;5015438;28;20539;-73
2021/08/08 03:58:32;;;;;;;0.70;0.60;;;;;;;16.85;100.00;-21139.13;5031472;28;20441;-72
2021/08/08 04:01:03;;;;;;;0.70;0.60;;;;;;;16.74;100.00;-21136.09;5039858;28;20439;-73
2021/08/08 04:03:35;;;;;;;0.70;0.70;;;;;;;16.66;100.00;-21134.03;5035404;28;20444;-73
2021/08/08 04:06:08;;;;;;;0.80;0.70;;;;;;;16.49;100.00;-21129.50;5034879;28;20446;-73
2021/08/08 04:08:36;;;;;;;0.80;0.70;;;;;;;16.42;100.00;-21127.72;5050626;28;20908;-73
2021/08/08 04:11:09;;;;;;;0.70;0.60;;;;;;;16.43;100.00;-21128.00;5035036;28;20494;-74
2021/08/08 04:13:38;;;;;;;0.80;0.73;;;;;;;16.32;100.00;-21124.84;5032005;28;20452;-74
2021/08/08 04:16:06;;;;;;;0.70;0.70;;;;;;;16.32;100.00;-21124.97;5030893;28;20452;-74
2021/08/08 04:18:35;;;;;;;0.80;0.70;;;;;;;16.32;100.00;-21124.97;5033233;28;20486;-73
2021/08/08 04:21:04;;;;;;;0.70;0.70;;;;;;;16.46;100.00;-21128.53;5039721;28;20506;-73
2021/08/08 04:23:33;;;;;;;0.70;0.60;;;;;;;16.49;100.00;-21129.38;5054343;28;20468;-72
2021/08/08 04:26:01;;;;;;;0.80;0.70;;;;;;;16.59;100.00;-21132.13;5037978;28;20444;-74
2021/08/08 04:28:29;;;;;;;0.80;0.70;;;;;;;16.62;100.00;-21133.06;5054577;28;20447;-73
2021/08/08 04:30:58;;;;;;;0.70;0.60;;;;;;;16.68;100.00;-21134.59;5055875;28;20431;-73
2021/08/08 04:33:28;;;;;;;0.70;0.60;;;;;;;16.62;100.00;-21133.06;5028013;28;20807;-74
2021/08/08 04:35:56;;;;;;;0.80;0.70;;;;;;;16.58;100.00;-21131.84;5034573;28;20532;-72
2021/08/08 04:38:23;;;;;;;0.80;0.70;;;;;;;16.67;100.00;-21134.44;5035521;28;20477;-73
2021/08/08 04:40:53;;;;;;;0.80;0.60;;;;;;;16.76;100.00;-21136.78;5034491;28;20449;-73
2021/08/08 04:43:21;;;;;;;0.70;0.60;;;;;;;16.69;100.00;-21134.72;5034040;28;20522;-72
2021/08/08 04:45:51;;;;;;;0.80;0.70;;;;;;;16.73;100.00;-21135.81;5034304;28;20453;-72
2021/08/08 04:48:19;;;;;;;0.80;0.70;;;;;;;16.75;100.00;-21136.50;5034250;28;20425;-72
2021/08/08 04:50:50;;;;;;;0.80;0.70;;;;;;;16.87;100.00;-21139.81;5020844;28;20447;-72
2021/08/08 04:53:19;;;;;;;0.70;0.60;;;;;;;16.81;100.00;-21138.16;5054001;28;20882;-72
2021/08/08 04:55:48;;;;;;;0.70;0.70;;;;;;;16.87;100.00;-21139.81;5037555;28;20444;-73
2021/08/08 04:58:17;;;;;;;0.70;0.63;;;;;;;16.82;100.00;-21138.28;5037598;28;20471;-72
2021/08/08 05:01:07;;;;;;;0.70;0.60;;;;;;;16.86;100.00;-21139.53;5052540;28;20483;-73
2021/08/08 05:03:35;;;;;;;0.80;0.70;;;;;;;16.93;100.00;-21141.19;5037297;28;20451;-73
2021/08/08 05:06:05;;;;;;;0.80;0.73;;;;;;;17.00;100.00;-21143.09;5054277;28;20474;-72
2021/08/08 05:08:33;;;;;;;0.70;0.70;;;;;;;17.07;100.00;-21145.16;5053520;28;20548;-73
2021/08/08 05:11:03;;;;;;;0.70;0.60;;;;;;;17.19;100.00;-21148.16;5037276;28;20488;-73
2021/08/08 05:13:32;;;;;;;0.80;0.70;;;;;;;17.22;100.00;-21149.13;5019460;28;20968;-73
2021/08/08 05:16:02;;;;;;;0.80;0.73;;;;;;;17.32;100.00;-21151.88;5034029;28;20955;-73
2021/08/08 05:18:30;;;;;;;0.70;0.60;;;;;;;17.35;100.00;-21152.69;5034702;28;20464;-73
2021/08/08 05:20:58;;;;;;;0.80;0.80;;;;;;;17.46;100.00;-21155.44;5020688;28;20457;-72
2021/08/08 05:23:27;;;;;;;0.80;0.70;;;;;;;17.56;100.00;-21158.31;5036907;28;20465;-72
2021/08/08 05:25:59;;;;;;;0.70;0.70;;;;;;;17.54;100.00;-21157.63;5053425;28;20500;-72
2021/08/08 05:28:28;;;;;;;0.80;0.80;;;;;;;17.67;100.00;-21161.06;5037160;28;20447;-72
2021/08/08 05:30:58;;;;;;;0.80;0.80;;;;;;;17.69;100.00;-21161.63;5036924;28;20447;-73
2021/08/08 05:33:25;;;;;;;0.70;0.67;;;;;;;17.69;100.00;-21161.75;5036110;28;20448;-73
2021/08/08 05:35:55;;;;;;;0.70;0.60;;;;;;;17.69;100.00;-21161.75;5037268;28;20448;-72
2021/08/08 05:38:24;;;;;;;0.70;0.70;;;;;;;17.78;100.00;-21164.22;5019052;28;20498;-72
2021/08/08 05:40:55;;;;;;;0.70;0.70;;;;;;;17.69;100.00;-21161.75;5033735;28;20443;-72
2021/08/08 05:43:24;;;;;;;0.80;0.70;;;;;;;17.77;100.00;-21163.81;5033866;28;20456;-73
2021/08/08 05:45:57;;;;;;;0.70;0.60;;;;;;;17.84;100.00;-21165.72;5037090;28;20473;-72
2021/08/08 05:48:26;;;;;;;0.70;0.63;;;;;;;17.93;100.00;-21168.06;5036344;28;20447;-72
2021/08/08 05:50:54;;;;;;;0.80;0.80;;;;;;;17.86;100.00;-21166.41;5030987;28;20488;-72
2021/08/08 05:53:26;;;;;;;0.80;0.73;;;;;;;18.06;100.00;-21171.63;5017072;28;20468;-73
2021/08/08 05:55:55;;;;;;;0.80;0.70;;;;;;;18.09;100.00;-21172.56;5032940;28;20516;-72
2021/08/08 05:58:25;;;;;;;0.80;0.70;;;;;;;18.08;100.00;-21172.16;5032680;28;20514;-73
2021/08/08 06:00:53;;;;;;;0.70;0.60;;;;;;;18.04;100.00;-21171.06;5032841;28;20435;-73
2021/08/08 06:03:23;;;;;;;0.70;0.60;;;;;;;18.05;100.00;-21171.34;5049144;28;20470;-73
2021/08/08 06:05:51;;;;;;;0.80;0.70;;;;;;;18.21;100.00;-21175.72;5065440;28;20867;-74
2021/08/08 06:08:22;;;;;;;0.83;0.80;;;;;;;18.45;100.00;-21182.03;5052651;28;20485;-74
2021/08/08 06:10:51;;;;;;;0.80;0.70;;;;;;;18.33;100.00;-21179.00;5035605;28;20452;-74
2021/08/08 06:13:19;;;;;;;0.70;0.63;;;;;;;18.32;100.00;-21178.75;5053041;28;20513;-73
2021/08/08 06:15:51;;;;;;;0.70;0.60;;;;;;;18.48;100.00;-21182.84;5052395;28;20435;-72
2021/08/08 06:18:19;;;;;;;0.77;0.70;;;;;;;18.49;100.00;-21183.13;5052285;28;20477;-72
2021/08/08 06:20:49;;;;;;;0.70;0.60;;;;;;;18.42;100.00;-21181.22;5052682;28;20434;-73
2021/08/08 06:23:40;;;;;;;1.03;0.93;;;;;;;18.54;100.00;-21184.50;5052628;28;20988;-72
2021/08/08 06:26:10;;;;;;;0.80;0.70;;;;;;;18.58;100.00;-21185.59;5036348;28;20455;-73
2021/08/08 06:28:38;;;;;;;0.80;0.70;;;;;;;18.71;100.00;-21189.00;5036486;28;20830;-72
2021/08/08 06:31:07;;;;;;;0.80;0.73;;;;;;;18.70;100.00;-21188.88;5051603;28;20494;-73
2021/08/08 06:33:37;;;;;;;0.80;0.70;;;;;;;18.90;100.00;-21194.06;5051677;28;20435;-73
2021/08/08 06:36:07;;;;;;;0.80;0.70;;;;;;;18.82;100.00;-21192.16;5035669;28;20445;-72
2021/08/08 06:38:39;;;;;;;0.80;0.80;;;;;;;18.97;100.00;-21196.00;5036055;28;20511;-73
2021/08/08 06:41:06;;;;;;;0.80;0.70;;;;;;;18.88;100.00;-21193.53;5035409;28;20459;-73
2021/08/08 06:43:35;;;;;;;0.80;0.70;;;;;;;19.06;100.00;-21198.59;5033534;28;20529;-73
2021/08/08 06:46:05;;;;;;;0.80;0.70;;;;;;;19.03;100.00;-21197.63;5032230;28;20444;-73
2021/08/08 06:48:35;;;;;;;0.70;0.70;;;;;;;18.99;100.00;-21196.69;5031879;28;20535;-73
2021/08/08 06:51:04;;;;;;;0.70;0.70;;;;;;;18.83;100.00;-21192.44;5032084;28;20483;-73
2021/08/08 06:53:33;;;;;;;0.80;0.70;;;;;;;18.65;100.00;-21187.50;5031303;28;20856;-73
2021/08/08 06:56:01;;;;;;;0.80;0.80;;;;;;;18.60;100.00;-21186.13;5052847;28;20447;-73
2021/08/08 06:58:35;;;;;;;0.80;0.70;;;;;;;18.57;100.00;-21185.31;5035930;28;20484;-73
2021/08/08 07:01:03;;;;;;;0.80;0.77;;;;;;;18.69;100.00;-21188.59;5029083;28;20872;-73
2021/08/08 07:03:31;;;;;;;0.70;0.60;;;;;;;18.92;100.00;-21194.63;5018901;28;20520;-73
2021/08/08 07:06:01;;;;;;;0.70;0.60;;;;;;;18.65;100.00;-21187.50;5031726;28;20459;-72
2021/08/08 07:08:29;;;;;;;0.70;0.60;;;;;;;18.43;100.00;-21181.47;5031951;28;20451;-72
2021/08/08 07:11:00;;;;;;;0.80;0.70;;;;;;;18.35;100.00;-21179.56;5015480;28;20802;-72
2021/08/08 07:13:28;;;;;;;0.70;0.70;;;;;;;18.49;100.00;-21183.25;5050380;28;20460;-74
2021/08/08 07:15:56;;;;;;;0.70;0.70;;;;;;;18.50;100.00;-21183.41;5035868;28;20432;-73
2021/08/08 07:18:24;;;;;;;0.77;0.70;;;;;;;18.71;100.00;-21189.16;5051314;28;20476;-73
2021/08/08 07:20:52;;;;;;;0.70;0.60;;;;;;;19.02;100.00;-21197.50;5052119;28;20448;-74
2021/08/08 07:23:23;;;;;;;0.70;0.60;;;;;;;18.93;100.00;-21194.91;5052527;28;20483;-74
2021/08/08 07:25:54;;;;;;;0.70;0.60;;;;;;;19.16;100.00;-21201.19;5035322;28;20452;-72
2021/08/08 07:28:24;;;;;;;0.70;0.67;;;;;;;18.83;100.00;-21192.44;5052769;28;20513;-73
2021/08/08 07:30:53;;;;;;;0.70;0.63;;;;;;;18.79;100.00;-21191.34;5052898;28;20408;-74
2021/08/08 07:33:21;;;;;;;0.80;0.70;;;;;;;18.81;100.00;-21191.88;5029241;28;20968;-73
2021/08/08 07:35:51;;;;;;;0.80;0.70;;;;;;;18.79;100.00;-21191.22;5032548;28;20766;-73
2021/08/08 07:38:20;;;;;;;0.70;0.60;;;;;;;18.90;100.00;-21194.06;5031718;28;21048;-72
2021/08/08 07:40:49;;;;;;;0.70;0.60;;;;;;;19.14;100.00;-21200.50;5031391;28;20440;-74
2021/08/08 07:43:42;;;;;;;0.70;0.60;;;;;;;20.06;100.00;-21225.25;5041575;28;20446;-74
2021/08/08 07:46:12;;;;;;;0.80;0.70;;;;;;;19.35;100.00;-21206.25;5051607;28;20944;-72
2021/08/08 07:48:41;;;;;;;0.80;0.60;;;;;;;19.41;100.00;-21207.75;5051631;28;20468;-73
2021/08/08 07:51:08;;;;;;;0.80;0.70;;;;;;;19.47;100.00;-21209.41;5047253;28;20445;-74
2021/08/08 07:53:37;;;;;;;0.80;0.70;;;;;;;19.29;100.00;-21204.75;5016152;28;20452;-74
2021/08/08 07:56:05;;;;;;;0.80;0.70;;;;;;;19.29;100.00;-21204.59;5035381;28;20811;-73
2021/08/08 07:58:33;;;;;;;0.80;0.70;;;;;;;18.92;100.00;-21194.75;5019353;28;20472;-73
2021/08/08 08:01:03;;;;;;;0.80;0.70;;;;;;;18.94;100.00;-21195.16;5018844;28;20452;-73
2021/08/08 08:03:31;;;;;;;0.80;0.70;;;;;;;19.00;100.00;-21196.81;5034730;28;20987;-72
2021/08/08 08:06:00;;;;;;;0.70;0.60;;;;;;;18.99;100.00;-21196.53;5035543;28;20532;-72
2021/08/08 08:08:28;;;;;;;0.70;0.70;;;;;;;19.04;100.00;-21197.91;5034961;28;20426;-72
2021/08/08 08:10:58;;;;;;;0.80;0.60;;;;;;;19.34;100.00;-21205.84;5036656;28;20451;-73
2021/08/08 08:13:29;;;;;;;0.77;0.60;;;;;;;19.87;100.00;-21220.06;5053299;28;20523;-73
2021/08/08 08:15:57;;;;;;;0.80;0.70;;;;;;;20.35;100.00;-21232.91;5055312;28;20924;-73
2021/08/08 08:18:26;;;;;;;0.80;0.60;;;;;;;20.84;100.00;-21246.00;5037618;28;20587;-72
2021/08/08 08:20:57;;;;;;;0.80;0.80;;;;;;;20.93;100.00;-21248.47;5051758;28;20452;-72
2021/08/08 08:23:25;;;;;;;0.80;0.60;;;;;;;20.81;100.00;-21245.34;5018234;28;20439;-72
2021/08/08 08:26:16;;;;;;;0.80;0.70;;;;;;;20.85;100.00;-21246.28;5035580;28;20421;-72
2021/08/08 08:28:46;;;;;;;0.80;0.60;;;;;;;20.86;100.00;-21246.56;5035568;28;20384;-72
2021/08/08 08:31:14;;;;;;;0.80;0.70;;;;;;;21.27;100.00;-21257.47;5017377;28;20486;-73
2021/08/08 08:33:43;;;;;;;0.80;0.60;;;;;;;21.20;100.00;-21255.84;5034722;28;20444;-72
2021/08/08 08:36:10;;;;;;;0.77;0.60;;;;;;;20.95;100.00;-21249.00;5034224;28;20736;-71
2021/08/08 08:38:40;;;;;;;0.77;0.60;;;;;;;21.08;100.00;-21252.56;5036082;28;20464;-73
2021/08/08 08:41:12;;;;;;;0.80;0.60;;;;;;;21.19;100.00;-21255.56;5034600;28;20423;-72
2021/08/08 08:43:43;;;;;;;0.80;0.70;;;;;;;21.90;100.00;-21274.38;5034822;28;20514;-72
2021/08/08 08:46:14;;;;;;;0.80;0.60;;;;;;;22.09;100.00;-21279.41;5034826;28;20464;-73
2021/08/08 08:48:45;;;;;;;0.70;0.60;;;;;;;21.52;100.00;-21264.28;5002258;28;20445;-73
2021/08/08 08:51:16;;;;;;;0.80;0.60;;;;;;;21.18;100.00;-21255.28;5052052;28;20933;-74
2021/08/08 08:53:47;;;;;;;0.80;0.70;;;;;;;21.37;100.00;-21260.22;5018150;28;20453;-72
2021/08/08 08:56:16;;;;;;;0.80;0.70;;;;;;;21.21;100.00;-21256.09;5047397;28;20539;-73
2021/08/08 08:58:45;;;;;;;0.80;0.70;;;;;;;21.51;100.00;-21263.88;5055700;28;20468;-72
2021/08/08 09:01:15;;;;;;;0.70;0.60;;;;;;;21.67;100.00;-21268.38;5045476;28;20457;-73
2021/08/08 09:03:46;;;;;;;0.70;0.60;;;;;;;21.69;100.00;-21268.94;5034042;28;20817;-74
2021/08/08 09:06:17;;;;;;;0.70;0.60;;;;;;;21.57;100.00;-21265.53;5033661;28;20473;-73
2021/08/08 09:08:46;;;;;;;0.70;0.60;;;;;;;21.68;100.00;-21268.66;5033461;28;20881;-73
2021/08/08 09:11:15;;;;;;;0.80;0.60;;;;;;;21.62;100.00;-21267.03;5034321;28;20433;-74
2021/08/08 09:14:02;;;;;;;0.80;0.70;;;;;;;21.03;100.00;-21251.06;5033818;28;20437;-74
2021/08/08 09:16:38;;;;;;;0.70;0.60;;;;;;;20.88;100.00;-21247.09;5018137;28;20786;-74
2021/08/08 09:19:17;;;;;;;0.80;0.70;;;;;;;20.50;100.00;-21237.00;5017476;28;20518;-74
2021/08/08 09:21:46;;;;;;;0.80;0.73;;;;;;;20.36;100.00;-21233.19;5027611;28;20476;-75
2021/08/08 09:24:22;;;;;;;0.80;0.60;;;;;;;20.45;100.00;-21235.63;5021152;28;20851;-74
2021/08/08 09:27:04;;;;;;;0.70;0.60;;;;;;;20.67;100.00;-21241.66;5037087;28;20446;-73
2021/08/08 09:29:35;;;;;;;0.80;0.70;;;;;;;20.91;100.00;-21247.91;5037204;28;20434;-73
2021/08/08 09:32:04;;;;;;;0.80;0.70;;;;;;;20.54;100.00;-21238.09;5022354;28;20448;-74
2021/08/08 09:34:35;;;;;;;0.80;0.70;;;;;;;20.82;100.00;-21245.47;5034768;28;20384;-74
2021/08/08 09:37:06;;;;;;;0.80;0.70;;;;;;;20.65;100.00;-21241.09;5034646;28;20392;-73
2021/08/08 09:39:36;;;;;;;0.80;0.60;;;;;;;20.97;100.00;-21249.56;5034542;28;20622;-74
2021/08/08 09:42:15;;;;;;;0.80;0.70;;;;;;;20.91;100.00;-21247.91;5033531;28;20925;-72
2021/08/08 09:44:52;;;;;;;0.80;0.60;;;;;;;21.68;100.00;-21268.53;5034272;28;20376;-75
2021/08/08 09:47:22;;;;;;;0.80;0.67;;;;;;;22.81;100.00;-21298.75;5016879;28;20394;-74
2021/08/08 09:49:59;;;;;;;0.80;0.60;;;;;;;23.50;100.00;-21317.13;5034694;28;20450;-74
2021/08/08 09:52:28;;;;;;;0.70;0.60;;;;;;;23.43;100.00;-21315.09;5035309;28;20436;-74
2021/08/08 09:55:03;;;;;;;0.70;0.50;;;;;;;23.05;100.00;-21305.16;5033155;28;20445;-73
2021/08/08 09:57:40;;;;;;;0.80;0.70;;;;;;;22.88;100.00;-21300.53;5033679;28;20972;-73
2021/08/08 10:00:21;;;;;;;0.70;0.60;;;;;;;22.65;100.00;-21294.53;5052490;28;21003;-74
2021/08/08 10:02:50;;;;;;;0.70;0.60;;;;;;;21.52;100.00;-21264.28;5052261;28;20482;-74
2021/08/08 10:05:20;;;;;;;0.80;0.60;;;;;;;21.29;100.00;-21258.03;5052900;28;20428;-74
2021/08/08 10:07:50;;;;;;;0.80;0.67;;;;;;;21.31;100.00;-21258.56;5053479;28;20513;-74
2021/08/08 10:10:23;;;;;;;0.80;0.70;;;;;;;21.28;100.00;-21257.75;5052045;28;20531;-73
2021/08/08 10:13:23;;;;;;;0.70;0.60;;;;;;;21.35;100.00;-21259.66;5023919;28;20456;-74
2021/08/08 10:16:14;;;;;;;0.80;0.60;;;;;;;21.30;100.00;-21258.28;5032993;28;20514;-74
2021/08/08 10:18:46;;;;;;;0.80;0.60;;;;;;;21.65;100.00;-21267.69;5032548;28;20465;-74
2021/08/08 10:21:18;;;;;;;0.70;0.60;;;;;;;22.18;100.00;-21282.00;5038613;28;20410;-74
2021/08/08 10:23:48;;;;;;;0.80;0.70;;;;;;;21.95;100.00;-21275.75;5050803;28;20827;-73
2021/08/08 10:26:17;;;;;;;0.80;0.70;;;;;;;21.68;100.00;-21268.66;5052534;28;20436;-74
2021/08/08 10:28:48;;;;;;;0.70;0.60;;;;;;;22.71;100.00;-21296.03;5036202;28;20531;-74
2021/08/08 10:31:21;;;;;;;0.80;0.60;;;;;;;23.31;100.00;-21311.97;5031920;28;20465;-75
2021/08/08 10:33:53;;;;;;;0.80;0.60;;;;;;;23.27;100.00;-21310.88;5033473;28;20417;-74
2021/08/08 10:36:24;;;;;;;0.70;0.60;;;;;;;23.53;100.00;-21317.94;5016151;28;20813;-74
2021/08/08 10:38:53;;;;;;;0.80;0.70;;;;;;;23.36;100.00;-21313.44;5015702;28;20504;-75
2021/08/08 10:41:21;;;;;;;0.80;0.60;;;;;;;22.41;100.00;-21288.00;5031684;28;20827;-73
2021/08/08 10:43:49;;;;;;;0.70;0.60;;;;;;;22.02;100.00;-21277.50;5032291;28;20437;-73
2021/08/08 10:46:17;;;;;;;0.70;0.60;;;;;;;21.56;100.00;-21265.38;5050904;28;20436;-75
2021/08/08 10:48:45;;;;;;;0.80;0.70;;;;;;;21.66;100.00;-21267.97;5035418;28;20483;-73
2021/08/08 10:51:18;;;;;;;0.70;0.60;;;;;;;21.00;100.00;-21250.38;5029866;28;20994;-74
2021/08/08 10:53:59;;;;;;;0.80;0.70;;;;;;;21.13;100.00;-21253.94;5036248;28;20824;-74
2021/08/08 10:56:40;;;;;;;0.80;0.60;;;;;;;20.97;100.00;-21249.56;5038887;28;20446;-75
2021/08/08 10:59:15;;;;;;;0.80;0.70;;;;;;;20.73;100.00;-21243.16;5052967;28;21039;-75
2021/08/08 11:01:44;;;;;;;0.80;0.70;;;;;;;20.49;100.00;-21236.72;5035973;28;20419;-72
2021/08/08 11:04:12;;;;;;;0.80;0.70;;;;;;;20.82;100.00;-21245.47;5051969;28;21032;-75
2021/08/08 11:06:41;;;;;;;0.70;0.60;;;;;;;21.06;100.00;-21252.03;5053187;28;20420;-75
2021/08/08 11:09:11;;;;;;;0.80;0.70;;;;;;;21.32;100.00;-21258.84;5051392;28;20499;-73
2021/08/08 11:11:39;;;;;;;0.80;0.70;;;;;;;21.10;100.00;-21253.09;5032581;28;20851;-74
2021/08/08 11:14:12;;;;;;;0.80;0.70;;;;;;;21.45;100.00;-21262.38;5034663;28;20435;-74
2021/08/08 11:16:42;;;;;;;0.73;0.63;;;;;;;21.87;100.00;-21273.56;5031559;28;20412;-72
2021/08/08 11:19:11;;;;;;;0.70;0.60;;;;;;;22.61;100.00;-21293.44;5031629;28;20458;-74
2021/08/08 11:21:39;;;;;;;0.70;0.60;;;;;;;23.12;100.00;-21307.06;5042604;28;20435;-72
2021/08/08 11:24:11;;;;;;;0.80;0.60;;;;;;;23.01;100.00;-21304.06;5051472;28;20463;-73
2021/08/08 11:26:39;;;;;;;0.80;0.70;;;;;;;22.99;100.00;-21303.53;5044585;28;20456;-72
2021/08/08 11:29:08;;;;;;;0.70;0.60;;;;;;;22.98;100.00;-21303.25;5035346;28;20384;-74
2021/08/08 11:31:38;;;;;;;0.80;0.70;;;;;;;22.76;100.00;-21297.41;5036368;28;20441;-72
2021/08/08 11:34:10;;;;;;;0.80;0.63;;;;;;;22.37;100.00;-21287.06;5036148;28;20410;-74